Time;durP1;ratioP1;P1;durP2;ratioP2;P2;SDS_P1;SDS_P2;PMS_P1;PMS_P2;Temp;Humidity;BMP_temperature;BMP_pressure;BME280_temperature;BME280_humidity;BME280_pressure;Samples;Min_cycle;Max_cycle;Signal;HPM_P1;HPM_P2
2021/05/15 00:01:44;;;;;;;8.30;6.70;;;;;;;14.76;100.00;101053.56;5072339;28;20606;-77
2021/05/15 00:04:10;;;;;;;10.27;7.40;;;;;;;14.80;100.00;101060.28;5071387;28;20180;-75
2021/05/15 00:06:54;;;;;;;11.27;7.23;;;;;;;14.80;100.00;101051.50;5071674;28;20156;-73
2021/05/15 00:09:23;;;;;;;11.40;6.60;;;;;;;14.83;100.00;101048.63;5072172;28;20160;-77
2021/05/15 00:12:16;;;;;;;9.03;6.50;;;;;;;14.84;100.00;101047.66;5072239;28;20423;-73
2021/05/15 00:14:42;;;;;;;11.30;8.23;;;;;;;14.82;100.00;101055.72;5072074;28;20419;-76
2021/05/15 00:17:08;;;;;;;8.60;6.43;;;;;;;14.82;100.00;101042.50;5069621;28;20838;-74
2021/05/15 00:19:35;;;;;;;12.17;7.00;;;;;;;14.80;100.00;101054.16;5064952;28;20466;-76
2021/05/15 00:22:01;;;;;;;7.83;6.73;;;;;;;14.68;100.00;101046.25;5064558;28;20614;-76
2021/05/15 00:24:30;;;;;;;8.40;7.43;;;;;;;14.65;100.00;101048.25;5064286;28;20898;-75
2021/05/15 00:26:59;;;;;;;10.03;6.70;;;;;;;14.59;100.00;101044.31;5065812;28;20514;-75
2021/05/15 00:29:25;;;;;;;9.40;7.43;;;;;;;14.56;100.00;101049.00;5067715;28;20506;-74
2021/05/15 00:31:54;;;;;;;8.80;6.53;;;;;;;14.50;100.00;101044.19;5064789;28;20423;-72
2021/05/15 00:34:19;;;;;;;8.67;7.00;;;;;;;14.66;100.00;101044.66;5065062;28;20438;-71
2021/05/15 00:36:46;;;;;;;9.43;6.53;;;;;;;14.60;100.00;101040.72;5065959;28;20476;-75
2021/05/15 00:39:12;;;;;;;9.80;7.13;;;;;;;14.55;100.00;101034.94;5046609;28;726934;-74
2021/05/15 00:41:37;;;;;;;8.87;7.37;;;;;;;14.54;100.00;101024.50;5068752;28;20307;-77
2021/05/15 00:44:16;;;;;;;10.17;6.83;;;;;;;14.54;100.00;101033.25;5072875;28;20168;-78
2021/05/15 00:46:45;;;;;;;8.93;7.47;;;;;;;14.48;100.00;101036.38;5070765;28;20172;-75
2021/05/15 00:49:10;;;;;;;9.67;8.00;;;;;;;14.40;100.00;101028.19;5070779;28;20524;-77
2021/05/15 00:51:36;;;;;;;13.00;7.70;;;;;;;14.35;100.00;101025.88;5072316;28;20411;-75
2021/05/15 00:54:03;;;;;;;9.60;8.00;;;;;;;14.24;100.00;101022.41;5071144;28;20168;-73
2021/05/15 00:56:29;;;;;;;15.60;10.03;;;;;;;14.19;100.00;101020.09;5072221;28;20210;-73
2021/05/15 00:58:58;;;;;;;10.57;9.10;;;;;;;14.06;100.00;101027.31;5071558;28;20426;-74
2021/05/15 01:01:24;;;;;;;10.07;9.03;;;;;;;14.00;100.00;101025.16;5071227;28;20445;-74
2021/05/15 01:03:50;;;;;;;11.10;9.67;;;;;;;13.96;100.00;101024.53;5072136;28;20422;-75
2021/05/15 01:06:15;;;;;;;12.57;9.37;;;;;;;13.95;100.00;101022.84;5071087;28;20434;-76
2021/05/15 01:08:47;;;;;;;13.13;9.87;;;;;;;13.93;100.00;101022.13;5070313;28;20187;-78
2021/05/15 01:11:18;;;;;;;15.77;11.03;;;;;;;13.96;100.00;101019.25;5070906;28;20172;-76
2021/05/15 01:14:00;;;;;;;13.40;10.70;;;;;;;13.96;100.00;101016.59;5069804;28;20496;-74
2021/05/15 01:16:26;;;;;;;13.53;9.93;;;;;;;13.92;100.00;101012.53;5066117;28;20454;-75
2021/05/15 01:18:52;;;;;;;15.63;11.00;;;;;;;13.78;100.00;101021.50;5071576;28;20438;-72
2021/05/15 01:21:18;;;;;;;12.00;10.07;;;;;;;13.83;100.00;101016.72;5072000;28;20395;-75
2021/05/15 01:23:43;;;;;;;13.20;9.43;;;;;;;13.82;100.00;101017.63;5071696;28;20414;-77
2021/05/15 01:26:22;;;;;;;13.90;8.53;;;;;;;13.75;100.00;101026.13;5071827;28;20645;-78
2021/05/15 01:28:51;;;;;;;13.60;8.73;;;;;;;13.67;100.00;101023.25;5069336;28;20455;-75
2021/05/15 01:31:17;;;;;;;10.87;9.47;;;;;;;13.54;100.00;101029.47;5071034;28;20430;-80
2021/05/15 01:33:42;;;;;;;10.93;9.83;;;;;;;13.56;100.00;101027.53;5071785;28;20403;-78
2021/05/15 01:36:09;;;;;;;18.53;10.60;;;;;;;13.62;100.00;101023.59;5069870;28;20532;-78
2021/05/15 01:38:35;;;;;;;14.47;11.20;;;;;;;13.62;100.00;101031.53;5071484;28;20262;-73
2021/05/15 01:41:06;;;;;;;13.83;10.40;;;;;;;13.59;100.00;101027.28;5052203;28;20451;-79
2021/05/15 01:43:32;;;;;;;14.60;11.40;;;;;;;13.56;100.00;101030.19;5061625;28;20483;-74
2021/05/15 01:45:58;;;;;;;16.20;12.10;;;;;;;13.55;100.00;101025.03;5069975;28;20837;-75
2021/05/15 01:48:24;;;;;;;16.30;11.60;;;;;;;13.59;100.00;101027.28;5070410;28;20975;-77
2021/05/15 01:50:56;;;;;;;18.20;12.60;;;;;;;13.62;100.00;101022.75;5070300;28;20188;-74
2021/05/15 01:53:26;;;;;;;20.70;13.93;;;;;;;13.65;100.00;101022.53;5070251;28;20414;-73
2021/05/15 01:55:53;;;;;;;22.20;14.30;;;;;;;13.64;100.00;101020.84;5071448;28;20415;-76
2021/05/15 01:58:18;;;;;;;22.40;14.20;;;;;;;13.64;100.00;101026.13;5069443;28;20426;-77
2021/05/15 02:00:45;;;;;;;24.73;16.10;;;;;;;13.63;100.00;101019.16;5068759;28;20430;-75
2021/05/15 02:03:10;;;;;;;17.97;15.07;;;;;;;13.62;100.00;101020.13;5069069;28;20685;-75
2021/05/15 02:05:36;;;;;;;18.33;13.97;;;;;;;13.64;100.00;101019.03;5071400;28;20407;-79
2021/05/15 02:08:01;;;;;;;26.80;14.20;;;;;;;13.60;100.00;101021.09;5070353;28;20176;-76
2021/05/15 02:10:27;;;;;;;20.60;12.63;;;;;;;13.57;100.00;101023.09;5069541;28;20160;-77
2021/05/15 02:12:52;;;;;;;19.90;13.60;;;;;;;13.54;100.00;101012.78;5068689;28;20183;-75
2021/05/15 02:15:18;;;;;;;21.30;12.93;;;;;;;13.52;100.00;101010.22;5069048;28;20476;-76
2021/05/15 02:17:44;;;;;;;17.57;13.17;;;;;;;13.50;100.00;101019.22;5051222;28;20685;-75
2021/05/15 02:20:10;;;;;;;23.53;15.00;;;;;;;13.49;100.00;101009.63;5054939;28;20759;-76
2021/05/15 02:22:35;;;;;;;22.37;15.03;;;;;;;13.49;100.00;101009.63;5069106;28;20167;-73
2021/05/15 02:25:01;;;;;;;32.10;18.17;;;;;;;13.42;100.00;101003.97;5069728;28;20410;-74
2021/05/15 02:27:26;;;;;;;30.07;19.87;;;;;;;13.51;100.00;101007.72;5069250;28;20677;-74
2021/05/15 02:29:52;;;;;;;26.90;17.70;;;;;;;13.47;100.00;101004.47;5068932;28;20218;-74
2021/05/15 02:32:17;;;;;;;30.00;20.17;;;;;;;13.42;100.00;101006.59;5070760;28;20168;-74
2021/05/15 02:34:44;;;;;;;30.47;19.63;;;;;;;13.40;100.00;101012.97;5071429;28;20230;-78
2021/05/15 02:37:09;;;;;;;30.40;21.27;;;;;;;13.35;100.00;101008.00;5069110;28;20222;-75
2021/05/15 02:39:35;;;;;;;29.57;20.87;;;;;;;13.35;100.00;101002.72;5071058;28;20458;-74
2021/05/15 02:42:01;;;;;;;30.07;22.03;;;;;;;13.36;100.00;101009.69;5070227;28;20208;-79
2021/05/15 02:44:26;;;;;;;26.57;18.50;;;;;;;13.40;100.00;101003.25;5070428;28;20164;-74
2021/05/15 02:46:52;;;;;;;24.53;18.97;;;;;;;13.44;100.00;101007.31;5071288;28;20157;-79
2021/05/15 02:49:17;;;;;;;27.80;18.20;;;;;;;13.49;100.00;101010.47;5070519;28;20317;-79
2021/05/15 02:51:43;;;;;;;24.83;17.23;;;;;;;13.45;100.00;101003.75;5071689;28;20188;-78
2021/05/15 02:54:08;;;;;;;24.33;17.70;;;;;;;13.50;100.00;101006.88;5067499;28;20180;-79
2021/05/15 02:56:34;;;;;;;27.70;17.77;;;;;;;13.41;100.00;101007.56;5071535;28;20263;-75
2021/05/15 02:59:00;;;;;;;23.83;17.63;;;;;;;13.38;100.00;101018.38;5069558;28;20156;-73
2021/05/15 03:01:26;;;;;;;27.60;19.13;;;;;;;13.35;100.00;101010.66;5067436;28;20418;-74
2021/05/15 03:03:51;;;;;;;29.80;16.80;;;;;;;13.27;100.00;101015.66;5069829;28;20667;-81
2021/05/15 03:06:17;;;;;;;23.47;15.70;;;;;;;13.23;100.00;101008.94;5069582;28;20188;-80
2021/05/15 03:08:45;;;;;;;24.53;17.13;;;;;;;13.21;100.00;101008.19;5071375;28;20172;-78
2021/05/15 03:11:11;;;;;;;19.50;14.27;;;;;;;13.23;100.00;101015.06;5071127;28;20172;-78
2021/05/15 03:13:36;;;;;;;22.13;10.60;;;;;;;13.17;100.00;101010.19;5071268;28;20391;-82
2021/05/15 03:16:02;;;;;;;29.23;17.77;;;;;;;13.12;100.00;101016.75;5071519;28;20587;-74
2021/05/15 03:18:28;;;;;;;26.50;13.97;;;;;;;13.10;100.00;101016.03;5070911;28;20722;-78
2021/05/15 03:20:53;;;;;;;29.70;11.27;;;;;;;13.09;100.00;101024.91;5070312;28;20169;-71
2021/05/15 03:23:19;;;;;;;21.00;12.70;;;;;;;13.05;100.00;101022.47;5070314;28;20164;-73
2021/05/15 03:25:45;;;;;;;22.83;15.93;;;;;;;13.11;100.00;101022.97;5070310;28;20202;-73
2021/05/15 03:28:11;;;;;;;25.30;16.07;;;;;;;13.14;100.00;101020.94;5070612;28;20164;-73
2021/05/15 03:30:36;;;;;;;23.60;16.27;;;;;;;13.16;100.00;101023.50;5070001;28;20403;-75
2021/05/15 03:33:02;;;;;;;23.53;15.87;;;;;;;13.22;100.00;101023.91;5070276;28;20639;-75
2021/05/15 03:35:28;;;;;;;26.67;18.57;;;;;;;13.27;100.00;101026.22;5068469;28;20165;-78
2021/05/15 03:37:55;;;;;;;36.97;19.83;;;;;;;13.31;100.00;101027.69;5061943;28;20702;-77
2021/05/15 03:40:20;;;;;;;28.60;18.10;;;;;;;13.40;100.00;101023.53;5056974;28;20431;-74
2021/05/15 03:42:48;;;;;;;32.00;19.90;;;;;;;13.47;100.00;101028.22;5069055;28;20918;-72
2021/05/15 03:45:14;;;;;;;30.60;19.93;;;;;;;13.57;100.00;101033.66;5060481;28;20163;-76
2021/05/15 03:47:40;;;;;;;31.33;21.97;;;;;;;13.59;100.00;101029.09;5062844;28;20923;-73
2021/05/15 03:50:07;;;;;;;30.90;20.60;;;;;;;13.63;100.00;101032.38;5059368;28;20771;-78
2021/05/15 03:52:33;;;;;;;34.43;22.10;;;;;;;13.62;100.00;101039.44;5067498;28;20396;-74
2021/05/15 03:54:59;;;;;;;37.33;23.23;;;;;;;13.64;100.00;101034.88;5073552;28;20860;-73
2021/05/15 03:57:24;;;;;;;42.23;22.00;;;;;;;13.68;100.00;101051.31;5073480;28;20195;-75
2021/05/15 03:59:50;;;;;;;34.43;21.93;;;;;;;13.74;100.00;101050.88;5072403;28;20195;-78
2021/05/15 04:02:15;;;;;;;34.10;21.50;;;;;;;13.77;100.00;101043.56;5071910;28;20173;-76
2021/05/15 04:04:41;;;;;;;36.97;23.37;;;;;;;13.86;100.00;101055.25;5072790;28;20709;-72
2021/05/15 04:07:06;;;;;;;29.30;20.90;;;;;;;14.00;100.00;101052.41;5072889;28;20670;-71
2021/05/15 04:09:32;;;;;;;38.50;22.27;;;;;;;14.07;100.00;101052.78;5073153;28;20218;-74
2021/05/15 04:11:58;;;;;;;35.93;19.60;;;;;;;14.18;100.00;101062.50;5071976;28;20153;-75
2021/05/15 04:19:34;;;;;;;31.03;20.73;;;;;;;14.24;100.00;101057.59;5069133;28;20192;-73
2021/05/15 04:22:00;;;;;;;30.50;19.93;;;;;;;14.36;100.00;101058.47;5070759;28;20955;-76
2021/05/15 04:24:26;;;;;;;28.90;19.83;;;;;;;14.40;100.00;101049.31;5073026;28;20414;-72
2021/05/15 04:26:53;;;;;;;32.57;22.70;;;;;;;14.55;100.00;101050.81;5072307;28;20502;-71
2021/05/15 04:29:20;;;;;;;29.90;21.70;;;;;;;14.59;100.00;101048.78;5072177;28;20291;-74
2021/05/15 04:31:46;;;;;;;29.17;19.10;;;;;;;14.71;100.00;101053.06;5058862;28;20403;-72
2021/05/15 04:34:11;;;;;;;28.90;21.33;;;;;;;14.89;100.00;101051.63;5069653;28;20515;-73
2021/05/15 04:36:37;;;;;;;36.80;22.20;;;;;;;14.91;100.00;101054.16;5072698;28;20191;-73
2021/05/15 04:39:04;;;;;;;24.60;18.97;;;;;;;15.07;100.00;101054.59;5071090;28;20597;-72
2021/05/15 04:41:29;;;;;;;25.77;18.23;;;;;;;15.14;100.00;101061.06;5071813;28;20172;-72
2021/05/15 04:43:55;;;;;;;29.33;19.73;;;;;;;15.14;100.00;101057.59;5071897;28;20414;-77
2021/05/15 04:46:20;;;;;;;30.63;21.00;;;;;;;15.23;100.00;101062.97;5072538;28;20199;-76
2021/05/15 04:48:46;;;;;;;25.50;18.30;;;;;;;15.37;100.00;101061.03;5072020;28;20259;-75
2021/05/15 04:51:11;;;;;;;26.60;19.50;;;;;;;15.44;100.00;101076.28;5063969;28;20234;-76
2021/05/15 04:53:37;;;;;;;25.93;19.13;;;;;;;15.55;100.00;101070.94;5072307;28;20165;-73
2021/05/15 04:56:04;;;;;;;35.47;22.40;;;;;;;15.69;100.00;101066.34;5070289;28;20244;-74
2021/05/15 04:58:30;;;;;;;27.50;20.97;;;;;;;15.90;100.00;101069.00;5071255;28;20414;-74
2021/05/15 05:00:55;;;;;;;28.17;20.90;;;;;;;15.94;100.00;101060.66;5071936;28;20430;-73
2021/05/15 05:03:21;;;;;;;27.73;19.10;;;;;;;15.98;100.00;101077.16;5068903;28;20195;-71
2021/05/15 05:05:46;;;;;;;31.80;19.90;;;;;;;16.10;100.00;101076.13;5051945;28;20153;-72
2021/05/15 05:08:12;;;;;;;27.97;21.03;;;;;;;16.22;100.00;101066.28;5051511;28;20255;-73
2021/05/15 05:10:37;;;;;;;26.10;19.23;;;;;;;16.43;100.00;101072.41;5062317;28;20261;-77
2021/05/15 05:13:04;;;;;;;24.10;19.20;;;;;;;16.53;100.00;101065.31;5070809;28;20156;-74
2021/05/15 05:15:30;;;;;;;20.13;15.53;;;;;;;16.52;100.00;101066.28;5070778;28;20165;-74
2021/05/15 05:17:55;;;;;;;25.73;16.27;;;;;;;16.53;100.00;101062.66;5070624;28;20463;-70
2021/05/15 05:20:21;;;;;;;21.83;17.87;;;;;;;16.55;100.00;101063.41;5051719;28;20168;-74
2021/05/15 05:22:46;;;;;;;37.07;19.73;;;;;;;16.61;100.00;101062.00;5052113;28;20165;-73
2021/05/15 05:25:13;;;;;;;37.30;25.43;;;;;;;16.81;100.00;101063.78;5056242;28;20168;-74
2021/05/15 05:27:46;;;;;;;32.40;20.40;;;;;;;17.04;100.00;101050.31;5071523;28;20149;-73
2021/05/15 05:30:16;;;;;;;29.70;23.23;;;;;;;17.13;100.00;101060.09;5071804;28;20406;-74
2021/05/15 05:32:43;;;;;;;23.77;20.03;;;;;;;17.16;100.00;101058.03;5070466;28;20403;-76
2021/05/15 05:35:10;;;;;;;37.00;25.10;;;;;;;17.20;100.00;101050.59;5069884;28;20912;-74
2021/05/15 05:37:35;;;;;;;28.17;21.83;;;;;;;17.37;100.00;101049.09;5068033;28;20481;-75
2021/05/15 05:40:03;;;;;;;29.63;22.57;;;;;;;17.51;100.00;101047.84;5068997;28;20468;-73
2021/05/15 05:42:29;;;;;;;30.13;21.57;;;;;;;17.56;100.00;101045.59;5070786;28;20165;-73
2021/05/15 05:44:54;;;;;;;27.90;19.10;;;;;;;17.66;100.00;101049.09;5071256;28;20414;-75
2021/05/15 05:47:20;;;;;;;25.37;19.77;;;;;;;17.79;100.00;101039.06;5071533;28;20630;-75
2021/05/15 05:49:45;;;;;;;30.10;19.70;;;;;;;17.89;100.00;101039.03;5069386;28;20172;-75
2021/05/15 05:52:11;;;;;;;29.23;21.67;;;;;;;18.03;100.00;101049.22;5070875;28;20558;-74
2021/05/15 05:54:36;;;;;;;27.77;19.20;;;;;;;18.20;100.00;101043.16;5071474;28;20156;-75
2021/05/15 05:57:02;;;;;;;37.37;23.40;;;;;;;18.44;100.00;101036.50;5071131;28;20231;-75
2021/05/15 05:59:27;;;;;;;23.53;20.07;;;;;;;18.64;100.00;101034.59;5071436;28;20157;-76
2021/05/15 06:01:54;;;;;;;28.77;20.70;;;;;;;18.65;100.00;101038.94;5054476;28;20674;-73
2021/05/15 06:04:19;;;;;;;34.30;28.80;;;;;;;18.60;100.00;101038.56;5068089;28;20160;-72
2021/05/15 06:06:45;;;;;;;42.20;31.23;;;;;;;18.57;100.00;101040.50;5069678;28;20777;-76
2021/05/15 06:09:10;;;;;;;47.20;35.73;;;;;;;18.54;100.00;101040.81;5071001;28;20256;-74
2021/05/15 06:11:36;;;;;;;49.27;36.07;;;;;;;18.60;100.00;101041.22;5070526;28;20195;-74
2021/05/15 06:14:01;;;;;;;47.17;35.40;;;;;;;18.67;100.00;101032.53;5070267;28;20549;-74
2021/05/15 06:16:27;;;;;;;53.60;35.63;;;;;;;18.70;100.00;101034.03;5069633;28;20200;-74
2021/05/15 06:18:52;;;;;;;61.30;43.70;;;;;;;18.75;100.00;101023.78;5051316;28;20228;-74
2021/05/15 06:21:18;;;;;;;47.83;38.37;;;;;;;18.84;100.00;101014.91;5051690;28;20508;-74
2021/05/15 06:23:43;;;;;;;54.47;40.43;;;;;;;18.84;100.00;101012.25;5054223;28;20196;-76
2021/05/15 06:26:09;;;;;;;50.33;38.20;;;;;;;18.88;100.00;101012.78;5070721;28;20634;-77
2021/05/15 06:28:38;;;;;;;48.33;36.20;;;;;;;19.03;100.00;101014.78;5060598;28;20169;-76
2021/05/15 06:31:04;;;;;;;58.80;45.20;;;;;;;19.18;100.00;101012.44;5070158;28;20417;-74
2021/05/15 06:33:31;;;;;;;63.87;47.00;;;;;;;19.30;100.00;101007.72;5071296;28;20395;-75
2021/05/15 06:35:57;;;;;;;64.33;46.87;;;;;;;19.39;100.00;101009.47;5069823;28;20926;-75
2021/05/15 06:38:23;;;;;;;65.97;50.60;;;;;;;19.49;100.00;101010.22;5068004;28;20962;-74
2021/05/15 06:40:49;;;;;;;63.83;50.27;;;;;;;19.49;100.00;100998.72;5065416;28;20164;-72
2021/05/15 06:43:15;;;;;;;54.77;43.10;;;;;;;19.41;100.00;101000.31;5061047;28;20477;-75
2021/05/15 06:45:40;;;;;;;60.13;47.40;;;;;;;19.42;100.00;101009.16;5050927;28;20767;-73
2021/05/15 06:48:07;;;;;;;62.63;43.43;;;;;;;19.49;100.00;100996.88;5051272;28;20985;-74
2021/05/15 06:50:33;;;;;;;51.50;37.27;;;;;;;19.53;100.00;100995.59;5050992;28;20173;-74
2021/05/15 06:52:59;;;;;;;57.40;42.10;;;;;;;19.54;100.00;100991.09;5050681;28;20766;-75
2021/05/15 06:55:26;;;;;;;77.37;52.67;;;;;;;19.51;100.00;100988.75;5050196;28;20541;-75
2021/05/15 06:57:52;;;;;;;65.60;48.40;;;;;;;19.41;100.00;100995.00;5050652;28;20209;-74
2021/05/15 07:00:18;;;;;;;62.73;49.20;;;;;;;19.45;100.00;101000.88;5050077;28;20434;-74
2021/05/15 07:02:44;;;;;;;56.53;40.53;;;;;;;19.53;100.00;100995.59;5049271;28;20432;-76
2021/05/15 07:05:10;;;;;;;32.57;29.03;;;;;;;19.59;100.00;100994.19;5057177;28;20427;-77
2021/05/15 07:07:35;;;;;;;23.73;19.40;;;;;;;19.62;100.00;101002.69;5070670;28;20621;-74
2021/05/15 07:10:01;;;;;;;20.43;15.07;;;;;;;19.60;100.00;101001.19;5070589;28;20167;-75
2021/05/15 07:12:27;;;;;;;20.20;16.87;;;;;;;19.52;100.00;100998.41;5070524;28;20239;-76
2021/05/15 07:14:52;;;;;;;23.03;18.33;;;;;;;19.46;100.00;100999.03;5072657;28;20634;-75
2021/05/15 07:17:25;;;;;;;26.70;21.00;;;;;;;19.49;100.00;101001.38;5074706;28;20196;-76
2021/05/15 07:19:54;;;;;;;28.37;22.10;;;;;;;19.49;100.00;101002.22;5074350;28;20164;-75
2021/05/15 07:22:24;;;;;;;27.50;24.10;;;;;;;19.49;100.00;101004.88;5073374;28;20447;-75
2021/05/15 07:24:50;;;;;;;32.03;25.50;;;;;;;19.45;100.00;101010.69;5074173;28;20391;-75
2021/05/15 07:27:16;;;;;;;31.23;23.17;;;;;;;19.35;100.00;101008.13;5073688;28;20770;-74
2021/05/15 07:29:42;;;;;;;24.27;19.30;;;;;;;19.43;100.00;101002.84;5073945;28;20910;-74
2021/05/15 07:32:08;;;;;;;22.13;18.07;;;;;;;19.60;100.00;101007.34;5073921;28;20399;-75
2021/05/15 07:34:34;;;;;;;21.43;17.80;;;;;;;19.48;100.00;101010.38;5069494;28;20472;-75
2021/05/15 07:36:59;;;;;;;26.23;19.50;;;;;;;19.36;100.00;101015.94;5073659;28;20200;-75
2021/05/15 07:39:25;;;;;;;23.90;18.33;;;;;;;19.42;100.00;101014.47;5072524;28;20357;-77
2021/05/15 07:41:51;;;;;;;17.87;15.80;;;;;;;19.46;100.00;101013.19;5073316;28;20176;-76
2021/05/15 07:44:16;;;;;;;19.87;14.10;;;;;;;19.53;100.00;101019.59;5073645;28;20547;-78
2021/05/15 07:46:42;;;;;;;17.60;15.67;;;;;;;19.43;100.00;101034.84;5073827;28;20203;-75
2021/05/15 07:49:07;;;;;;;21.70;15.80;;;;;;;19.45;100.00;101045.34;5074262;28;20160;-73
2021/05/15 07:51:33;;;;;;;20.23;16.63;;;;;;;19.47;100.00;101044.19;5061077;28;20662;-77
2021/05/15 07:53:58;;;;;;;18.93;16.87;;;;;;;19.48;100.00;101048.53;5062418;28;20173;-76
2021/05/15 07:56:24;;;;;;;23.50;16.90;;;;;;;19.48;100.00;101048.53;5073947;28;20185;-77
2021/05/15 07:58:49;;;;;;;17.90;14.13;;;;;;;19.53;100.00;101046.25;5073612;28;20243;-78
2021/05/15 08:01:15;;;;;;;20.33;15.63;;;;;;;19.61;100.00;101042.84;5073622;28;20205;-76
2021/05/15 08:03:41;;;;;;;20.37;15.43;;;;;;;19.52;100.00;101043.75;5073558;28;20244;-76
2021/05/15 08:06:07;;;;;;;20.10;17.17;;;;;;;19.51;100.00;101036.75;5073830;28;20595;-76
2021/05/15 08:08:33;;;;;;;22.17;17.77;;;;;;;19.40;100.00;101051.13;5073655;28;20399;-76
2021/05/15 08:10:58;;;;;;;21.53;18.37;;;;;;;19.46;100.00;101052.34;5073240;28;20402;-76
2021/05/15 08:13:24;;;;;;;24.47;18.67;;;;;;;19.56;100.00;101055.75;5073441;28;20173;-76
2021/05/15 08:15:51;;;;;;;19.70;17.40;;;;;;;19.56;100.00;101043.25;5073919;28;20161;-76
2021/05/15 08:18:17;;;;;;;27.83;19.33;;;;;;;19.61;100.00;101037.50;5072726;28;20269;-77
2021/05/15 08:20:42;;;;;;;24.90;20.00;;;;;;;19.87;100.00;101032.19;5068454;28;20416;-75
2021/05/15 08:23:08;;;;;;;23.90;18.80;;;;;;;20.08;100.00;101026.53;5053301;28;20407;-78
2021/05/15 08:25:33;;;;;;;21.30;18.37;;;;;;;20.29;100.00;101031.50;5051836;28;20160;-78
2021/05/15 08:28:03;;;;;;;19.10;15.27;;;;;;;20.56;100.00;101023.31;5053046;28;20164;-77
2021/05/15 08:30:31;;;;;;;18.27;16.03;;;;;;;20.73;100.00;101022.38;5069610;28;20253;-76
2021/05/15 08:32:58;;;;;;;16.03;14.33;;;;;;;20.77;100.00;101025.56;5072754;28;20403;-76
2021/05/15 08:35:25;;;;;;;16.63;14.33;;;;;;;20.85;100.00;101017.56;5072710;28;20398;-75
2021/05/15 08:37:51;;;;;;;17.97;14.43;;;;;;;20.85;100.00;101011.38;5072502;28;20494;-77
2021/05/15 08:40:17;;;;;;;19.70;15.60;;;;;;;20.68;100.00;101027.34;5072910;28;20929;-77
2021/05/15 08:42:44;;;;;;;18.83;15.07;;;;;;;20.77;100.00;101013.03;5071126;28;20936;-77
2021/05/15 08:45:12;;;;;;;17.37;14.20;;;;;;;20.95;100.00;101004.91;5072795;28;20403;-75
2021/05/15 08:47:39;;;;;;;15.60;14.00;;;;;;;21.10;100.00;101013.13;5072635;28;20414;-77
2021/05/15 08:50:14;;;;;;;18.67;14.40;;;;;;;21.33;100.00;101002.69;5072331;28;20423;-75
2021/05/15 08:52:46;;;;;;;16.73;13.43;;;;;;;21.30;100.00;101006.50;5057652;28;20418;-77
2021/05/15 08:55:16;;;;;;;16.33;13.63;;;;;;;21.32;100.00;101001.00;5071831;28;20407;-76
2021/05/15 08:57:42;;;;;;;21.47;13.10;;;;;;;21.59;100.00;101006.00;5072425;28;20454;-76
2021/05/15 09:00:17;;;;;;;13.67;11.57;;;;;;;21.70;100.00;101002.19;5071695;28;20407;-75
2021/05/15 09:02:48;;;;;;;11.63;10.43;;;;;;;21.71;100.00;101006.50;5072738;28;20481;-76
2021/05/15 09:05:16;;;;;;;13.23;9.70;;;;;;;21.53;100.00;101011.19;5072957;28;20853;-76
2021/05/15 09:07:47;;;;;;;14.10;8.77;;;;;;;21.36;100.00;101001.50;5070736;28;20410;-76
2021/05/15 09:10:13;;;;;;;10.70;8.60;;;;;;;21.28;100.00;101007.69;5070964;28;20414;-75
2021/05/15 09:12:39;;;;;;;7.87;7.07;;;;;;;21.34;100.00;101012.38;5071824;28;20415;-76
2021/05/15 09:15:07;;;;;;;20.43;7.50;;;;;;;21.27;100.00;101017.53;5072174;28;20626;-78
2021/05/15 09:17:47;;;;;;;12.30;7.40;;;;;;;21.36;100.00;101009.50;5072123;28;20230;-77
2021/05/15 09:20:24;;;;;;;15.63;7.07;;;;;;;21.42;100.00;101004.34;5069360;28;20848;-76
2021/05/15 09:22:50;;;;;;;7.60;6.20;;;;;;;21.52;100.00;100998.81;5052445;28;20474;-76
2021/05/15 09:25:16;;;;;;;6.93;6.23;;;;;;;21.48;100.00;101005.53;5051325;28;20491;-78
2021/05/15 09:27:42;;;;;;;20.37;6.50;;;;;;;21.63;100.00;100997.66;5051871;28;20160;-75
2021/05/15 09:30:08;;;;;;;15.57;6.70;;;;;;;21.72;100.00;101007.34;5051636;28;20400;-77
2021/05/15 09:32:35;;;;;;;12.00;6.53;;;;;;;21.54;100.00;101002.19;5051669;28;20243;-77
2021/05/15 09:35:03;;;;;;;9.03;6.30;;;;;;;21.27;100.00;101012.19;5051773;28;20411;-77
2021/05/15 09:37:40;;;;;;;10.20;6.43;;;;;;;21.18;100.00;101013.16;5051079;28;20474;-77
2021/05/15 09:40:28;;;;;;;12.20;6.77;;;;;;;21.29;100.00;101009.34;5052979;28;20420;-78
2021/05/15 09:42:56;;;;;;;57.17;12.87;;;;;;;21.39;100.00;101012.72;5051669;28;20391;-77
2021/05/15 09:45:33;;;;;;;10.40;7.90;;;;;;;21.24;100.00;101011.66;5051239;28;20457;-76
2021/05/15 09:48:05;;;;;;;40.73;12.83;;;;;;;20.98;100.00;101014.44;5053390;28;20474;-76
2021/05/15 09:50:33;;;;;;;61.17;15.40;;;;;;;20.88;100.00;101011.09;5051602;28;20412;-76
2021/05/15 09:53:19;;;;;;;11.50;9.73;;;;;;;20.78;100.00;101016.53;5050493;28;20921;-77
2021/05/15 09:55:51;;;;;;;14.90;8.77;;;;;;;20.81;100.00;101004.72;5051533;28;20954;-76
2021/05/15 09:58:17;;;;;;;10.03;8.37;;;;;;;20.80;100.00;101006.56;5051283;28;20528;-77
2021/05/15 10:00:47;;;;;;;11.70;9.33;;;;;;;20.83;100.00;101000.88;5051035;28;20805;-78
2021/05/15 10:03:23;;;;;;;13.57;11.27;;;;;;;20.85;100.00;101000.69;5051389;28;20165;-77
2021/05/15 10:06:10;;;;;;;14.43;10.50;;;;;;;20.94;100.00;101007.75;5050996;28;20399;-78
2021/05/15 10:08:39;;;;;;;11.27;9.77;;;;;;;20.96;100.00;101008.44;5050993;28;20403;-75
2021/05/15 10:11:05;;;;;;;15.77;11.20;;;;;;;20.92;100.00;101012.41;5050852;28;20396;-75
2021/05/15 10:13:35;;;;;;;13.40;10.33;;;;;;;20.68;100.00;101014.00;5051194;28;20502;-75
2021/05/15 10:16:01;;;;;;;16.33;12.60;;;;;;;20.68;100.00;101010.50;5050908;28;20474;-75
2021/05/15 10:18:28;;;;;;;18.90;16.60;;;;;;;20.69;100.00;101002.31;5065359;28;20867;-74
2021/05/15 10:20:54;;;;;;;20.77;15.33;;;;;;;20.98;100.00;100996.56;5054986;28;20413;-77
2021/05/15 10:23:25;;;;;;;23.80;16.67;;;;;;;21.67;100.00;100994.47;5070678;28;20397;-76
2021/05/15 10:26:10;;;;;;;15.80;11.70;;;;;;;22.03;100.00;100991.41;5070742;28;20405;-77
2021/05/15 10:28:37;;;;;;;15.10;10.80;;;;;;;21.85;100.00;100997.81;5069060;28;20419;-78
2021/05/15 10:31:05;;;;;;;15.47;8.80;;;;;;;21.68;100.00;100993.47;5070251;28;20390;-74
2021/05/15 10:33:31;;;;;;;10.70;9.60;;;;;;;21.66;100.00;100997.31;5070813;28;20845;-75
2021/05/15 10:35:57;;;;;;;14.70;9.93;;;;;;;21.48;100.00;101003.69;5070849;28;20395;-76
2021/05/15 10:38:33;;;;;;;11.80;9.17;;;;;;;21.43;100.00;101006.00;5056541;28;20490;-75
2021/05/15 10:41:10;;;;;;;14.17;11.47;;;;;;;21.44;100.00;100998.81;5065414;28;20271;-74
2021/05/15 10:43:38;;;;;;;14.87;10.27;;;;;;;21.44;100.00;100998.81;5070051;28;20418;-77
2021/05/15 10:46:27;;;;;;;12.63;9.60;;;;;;;21.39;100.00;100995.84;5070643;28;20387;-79
2021/05/15 10:49:05;;;;;;;14.13;9.90;;;;;;;21.41;100.00;101000.00;5072818;28;20398;-77
2021/05/15 10:51:49;;;;;;;17.53;11.73;;;;;;;21.28;100.00;100988.97;5074759;28;20391;-75
2021/05/15 10:54:17;;;;;;;13.30;9.70;;;;;;;21.30;100.00;100990.47;5074972;28;20383;-76
2021/05/15 10:56:48;;;;;;;17.77;10.80;;;;;;;21.25;100.00;100989.28;5074345;28;20847;-77
2021/05/15 10:59:22;;;;;;;14.50;10.80;;;;;;;21.34;100.00;100988.31;5073871;28;20444;-75
2021/05/15 11:01:59;;;;;;;13.13;9.70;;;;;;;21.18;100.00;100991.78;5074633;28;20383;-78
2021/05/15 11:04:33;;;;;;;12.77;9.03;;;;;;;21.21;100.00;100978.06;5074582;28;20938;-78
2021/05/15 11:07:10;;;;;;;11.67;10.03;;;;;;;21.36;100.00;100980.94;5072409;28;20877;-75
2021/05/15 11:09:56;;;;;;;13.50;9.30;;;;;;;21.42;100.00;100988.31;5057399;28;20408;-74
2021/05/15 11:12:23;;;;;;;13.07;9.37;;;;;;;21.39;100.00;101001.19;5055370;28;20993;-75